createdAt,value
2018-09-02T00:00:30.517Z,62.30
2018-09-02T00:01:02.430Z,61.90
2018-09-02T00:01:34.270Z,62.00
2018-09-02T00:02:06.190Z,62.30
2018-09-02T00:02:38.078Z,62.40
2018-09-02T00:03:09.871Z,61.80
2018-09-02T00:03:41.709Z,62.40
2018-09-02T00:04:13.536Z,62.30
2018-09-02T00:04:45.389Z,62.30
2018-09-02T00:05:17.210Z,62.40
2018-09-02T00:05:49.070Z,62.40
2018-09-02T00:06:21.119Z,62.30
2018-09-02T00:06:53.078Z,62.20
2018-09-02T00:07:24.958Z,62.30
2018-09-02T00:07:56.773Z,62.20
2018-09-02T00:08:28.631Z,61.90
2018-09-02T00:09:00.421Z,62.30
2018-09-02T00:09:32.289Z,62.30
2018-09-02T00:10:04.433Z,62.20
2018-09-02T00:10:36.414Z,62.30
2018-09-02T00:11:08.538Z,62.30
2018-09-02T00:11:40.317Z,62.50
2018-09-02T00:12:12.174Z,62.40
2018-09-02T00:12:43.992Z,62.30
2018-09-02T00:13:15.954Z,62.40
2018-09-02T00:13:47.934Z,62.20
2018-09-02T00:14:19.759Z,62.60
2018-09-02T00:14:51.567Z,62.30
2018-09-02T00:15:23.438Z,62.40
2018-09-02T00:15:55.259Z,62.30
2018-09-02T00:16:27.208Z,61.70
2018-09-02T00:16:59.169Z,62.40
2018-09-02T00:17:31.021Z,62.10
2018-09-02T00:18:03.048Z,62.10
2018-09-02T00:18:34.949Z,62.50
2018-09-02T00:19:06.847Z,62.40
2018-09-02T00:19:38.667Z,62.30
2018-09-02T00:20:10.539Z,62.30
2018-09-02T00:20:42.418Z,62.50
2018-09-02T00:21:14.249Z,62.40
2018-09-02T00:21:46.318Z,62.40
2018-09-02T00:22:18.129Z,62.00
2018-09-02T00:22:50.224Z,62.50
2018-09-02T00:23:22.052Z,62.30
2018-09-02T00:23:54.081Z,62.30
2018-09-02T00:24:26.507Z,62.30
2018-09-02T00:24:58.408Z,62.10
2018-09-02T00:25:30.209Z,62.20
2018-09-02T00:26:02.138Z,62.50
2018-09-02T00:26:34.123Z,62.50
2018-09-02T00:27:05.980Z,62.10
2018-09-02T00:27:37.795Z,62.10
2018-09-02T00:28:09.587Z,62.30
2018-09-02T00:28:41.382Z,62.30
2018-09-02T00:29:13.387Z,62.00
2018-09-02T00:29:45.302Z,62.00
2018-09-02T00:30:17.297Z,62.40
2018-09-02T00:30:49.361Z,62.10
2018-09-02T00:31:21.290Z,62.20
2018-09-02T00:31:53.175Z,62.40
2018-09-02T00:32:25.068Z,62.40
2018-09-02T00:32:57.137Z,62.30
2018-09-02T00:33:29.137Z,62.40
2018-09-02T00:34:01.265Z,62.10
2018-09-02T00:34:33.231Z,62.20
2018-09-02T00:35:05.254Z,62.30
2018-09-02T00:35:37.068Z,62.30
2018-09-02T00:36:08.857Z,62.30
2018-09-02T00:36:40.807Z,62.30
2018-09-02T00:37:12.666Z,62.10
2018-09-02T00:37:44.515Z,62.00
2018-09-02T00:38:16.324Z,62.00
2018-09-02T00:38:48.181Z,62.30
2018-09-02T00:39:20.222Z,62.00
2018-09-02T00:39:52.089Z,62.00
2018-09-02T00:40:24.019Z,62.20
2018-09-02T00:40:55.837Z,62.30
2018-09-02T00:41:27.808Z,62.20
2018-09-02T00:41:59.857Z,62.10
2018-09-02T00:42:31.674Z,61.90
2018-09-02T00:43:03.627Z,62.40
2018-09-02T00:43:35.429Z,63.00
2018-09-02T00:44:07.318Z,62.30
2018-09-02T00:44:39.075Z,62.10
2018-09-02T00:45:10.906Z,62.00
2018-09-02T00:45:42.698Z,62.40
2018-09-02T00:46:14.620Z,63.00
2018-09-02T00:46:46.523Z,62.80
2018-09-02T00:47:18.417Z,62.10
2018-09-02T00:47:50.188Z,61.70
2018-09-02T00:48:22.008Z,62.10
2018-09-02T00:48:53.801Z,62.20
2018-09-02T00:49:25.660Z,62.40
2018-09-02T00:49:57.507Z,62.10
2018-09-02T00:50:29.338Z,61.80
2018-09-02T00:51:01.215Z,62.10
2018-09-02T00:51:33.085Z,62.00
2018-09-02T00:52:05.020Z,62.20
2018-09-02T00:52:37.047Z,62.20
2018-09-02T00:53:08.863Z,62.80
2018-09-02T00:53:40.731Z,62.10
2018-09-02T00:54:12.578Z,62.10
2018-09-02T00:54:44.476Z,62.30
2018-09-02T00:55:16.330Z,62.30
2018-09-02T00:55:48.147Z,61.90
2018-09-02T00:56:19.956Z,62.30
2018-09-02T00:56:51.885Z,62.10
2018-09-02T00:57:23.679Z,62.10
2018-09-02T00:57:55.582Z,62.10
2018-09-02T00:58:27.497Z,62.10
2018-09-02T00:58:59.624Z,62.00
2018-09-02T00:59:31.487Z,61.30
2018-09-02T01:00:03.396Z,62.00
2018-09-02T01:00:35.407Z,62.90
2018-09-02T01:01:07.225Z,62.10
2018-09-02T01:01:39.173Z,61.90
2018-09-02T01:02:11.025Z,62.10
2018-09-02T01:02:42.931Z,62.10
2018-09-02T01:03:14.814Z,62.00
2018-09-02T01:03:46.624Z,61.80
2018-09-02T01:04:18.534Z,61.80
2018-09-02T01:04:50.456Z,61.50
2018-09-02T01:05:22.301Z,61.40
2018-09-02T01:05:54.437Z,61.80
2018-09-02T01:06:26.415Z,61.70
2018-09-02T01:06:58.253Z,61.70
2018-09-02T01:07:30.342Z,62.30
2018-09-02T01:08:02.243Z,61.90
2018-09-02T01:08:34.152Z,61.70
2018-09-02T01:09:06.018Z,62.00
2018-09-02T01:09:37.822Z,62.00
2018-09-02T01:10:09.692Z,62.00
2018-09-02T01:10:41.603Z,61.90
2018-09-02T01:11:13.438Z,62.50
2018-09-02T01:11:45.268Z,61.70
2018-09-02T01:12:17.101Z,62.60
2018-09-02T01:12:48.932Z,61.80
2018-09-02T01:13:20.776Z,61.90
2018-09-02T01:13:52.585Z,62.10
2018-09-02T01:14:24.590Z,61.90
2018-09-02T01:14:56.505Z,61.90
2018-09-02T01:15:28.330Z,61.90
2018-09-02T01:16:00.170Z,62.00
2018-09-02T01:16:32.017Z,61.90
2018-09-02T01:17:03.840Z,61.90
2018-09-02T01:17:35.692Z,61.90
2018-09-02T01:18:07.600Z,62.00
2018-09-02T01:18:39.774Z,62.00
2018-09-02T01:19:11.589Z,62.00
2018-09-02T01:19:43.360Z,61.80
2018-09-02T01:20:15.169Z,61.70
2018-09-02T01:20:47.099Z,61.70
2018-09-02T01:21:19.080Z,61.90
2018-09-02T01:21:50.938Z,61.90
2018-09-02T01:22:22.910Z,61.90
2018-09-02T01:22:54.821Z,61.50
2018-09-02T01:23:26.879Z,62.50
2018-09-02T01:23:58.708Z,62.10
2018-09-02T01:24:30.691Z,62.70
2018-09-02T01:25:02.532Z,62.00
2018-09-02T01:25:34.428Z,62.00
2018-09-02T01:26:06.197Z,62.00
2018-09-02T01:26:38.088Z,62.00
2018-09-02T01:27:09.906Z,61.90
2018-09-02T01:27:41.771Z,62.00
2018-09-02T01:28:13.738Z,62.00
2018-09-02T01:28:45.582Z,61.90
2018-09-02T01:29:17.403Z,62.10
2018-09-02T01:29:49.210Z,62.10
2018-09-02T01:30:21.087Z,62.00
2018-09-02T01:30:53.158Z,61.90
2018-09-02T01:31:25.037Z,61.90
2018-09-02T01:31:56.917Z,61.70
2018-09-02T01:32:28.696Z,61.60
2018-09-02T01:33:00.616Z,62.00
2018-09-02T01:33:32.417Z,61.90
2018-09-02T01:34:04.235Z,61.90
2018-09-02T01:34:36.045Z,61.90
2018-09-02T01:35:07.908Z,61.80
2018-09-02T01:35:39.739Z,61.90
2018-09-02T01:36:11.528Z,62.10
2018-09-02T01:36:43.401Z,61.70
2018-09-02T01:37:15.467Z,61.90
2018-09-02T01:37:47.390Z,61.60
2018-09-02T01:38:19.279Z,62.30
2018-09-02T01:38:51.288Z,62.60
2018-09-02T01:39:23.307Z,62.60
2018-09-02T01:39:55.115Z,62.00
2018-09-02T01:40:26.908Z,61.70
2018-09-02T01:40:58.726Z,61.70
2018-09-02T01:41:30.558Z,61.50
2018-09-02T01:42:02.415Z,61.70
2018-09-02T01:42:34.347Z,61.90
2018-09-02T01:43:06.205Z,61.60
2018-09-02T01:43:38.087Z,61.30
2018-09-02T01:44:10.369Z,61.90
2018-09-02T01:44:42.214Z,61.70
2018-09-02T01:45:13.989Z,61.80
2018-09-02T01:45:45.930Z,61.70
2018-09-02T01:46:17.934Z,61.60
2018-09-02T01:46:49.837Z,61.90
2018-09-02T01:47:21.643Z,61.80
2018-09-02T01:47:53.605Z,62.50
2018-09-02T01:48:25.473Z,61.90
2018-09-02T01:48:57.274Z,61.40
2018-09-02T01:49:29.225Z,61.90
2018-09-02T01:50:01.269Z,61.80
2018-09-02T01:50:33.105Z,61.80
2018-09-02T01:51:04.938Z,61.70
2018-09-02T01:51:37.236Z,61.70
2018-09-02T01:52:09.295Z,62.40
2018-09-02T01:52:41.323Z,61.70
2018-09-02T01:53:13.196Z,61.70
2018-09-02T01:53:45.083Z,61.90
2018-09-02T01:54:16.974Z,61.80
2018-09-02T01:54:48.876Z,62.40
2018-09-02T01:55:20.738Z,61.50
2018-09-02T01:55:52.522Z,61.70
2018-09-02T01:56:24.465Z,61.70
2018-09-02T01:56:56.358Z,61.70
2018-09-02T01:57:28.312Z,61.80
2018-09-02T01:58:00.363Z,61.80
2018-09-02T01:58:32.597Z,62.60
2018-09-02T01:59:04.633Z,61.70
2018-09-02T01:59:36.564Z,62.50
2018-09-02T02:00:08.423Z,61.90
2018-09-02T02:00:40.331Z,61.80
2018-09-02T02:01:12.306Z,61.70
2018-09-02T02:01:44.120Z,61.70
2018-09-02T02:02:15.984Z,61.50
2018-09-02T02:02:47.786Z,61.60
2018-09-02T02:03:19.643Z,61.60
2018-09-02T02:03:51.518Z,61.80
2018-09-02T02:04:23.516Z,61.70
2018-09-02T02:04:55.453Z,61.60
2018-09-02T02:05:27.352Z,61.60
2018-09-02T02:05:59.143Z,61.30
2018-09-02T02:06:30.956Z,61.80
2018-09-02T02:07:02.944Z,61.70
2018-09-02T02:07:34.829Z,61.70
2018-09-02T02:08:06.819Z,61.30
2018-09-02T02:08:38.593Z,61.80
2018-09-02T02:09:10.393Z,61.10
2018-09-02T02:09:42.216Z,61.30
2018-09-02T02:10:14.064Z,61.60
2018-09-02T02:10:46.183Z,61.40
2018-09-02T02:11:18.033Z,61.20
2018-09-02T02:11:49.953Z,61.10
2018-09-02T02:12:21.974Z,61.30
2018-09-02T02:12:53.832Z,62.00
2018-09-02T02:13:25.704Z,61.00
2018-09-02T02:13:57.523Z,61.40
2018-09-02T02:14:29.335Z,61.40
2018-09-02T02:15:01.133Z,61.10
2018-09-02T02:15:33.112Z,61.10
2018-09-02T02:16:05.019Z,61.30
2018-09-02T02:16:36.869Z,61.50
2018-09-02T02:17:08.853Z,61.40
2018-09-02T02:17:40.694Z,61.40
2018-09-02T02:18:12.492Z,61.40
2018-09-02T02:18:44.537Z,61.40
2018-09-02T02:19:16.349Z,61.40
2018-09-02T02:19:48.137Z,61.40
2018-09-02T02:20:19.937Z,61.40
2018-09-02T02:20:51.894Z,61.30
2018-09-02T02:21:24.018Z,61.30
2018-09-02T02:21:55.811Z,61.40
2018-09-02T02:22:27.664Z,61.30
2018-09-02T02:22:59.717Z,61.30
2018-09-02T02:23:31.685Z,61.30
2018-09-02T02:24:03.783Z,61.60
2018-09-02T02:24:35.717Z,61.50
2018-09-02T02:25:07.684Z,61.60
2018-09-02T02:25:39.536Z,61.40
2018-09-02T02:26:11.425Z,61.20
2018-09-02T02:26:43.369Z,61.40
2018-09-02T02:27:15.313Z,61.40
2018-09-02T02:27:47.122Z,61.30
2018-09-02T02:28:19.105Z,61.60
2018-09-02T02:28:50.916Z,61.40
2018-09-02T02:29:22.818Z,61.50
2018-09-02T02:29:54.919Z,61.40
2018-09-02T02:30:26.804Z,61.60
2018-09-02T02:30:58.603Z,61.50
2018-09-02T02:31:30.470Z,61.50
2018-09-02T02:32:02.264Z,61.50
2018-09-02T02:32:34.054Z,61.60
2018-09-02T02:33:05.934Z,61.60
2018-09-02T02:33:37.731Z,61.60
2018-09-02T02:34:09.542Z,61.60
2018-09-02T02:34:41.403Z,61.70
2018-09-02T02:35:13.348Z,61.60
2018-09-02T02:35:45.134Z,61.40
2018-09-02T02:36:17.057Z,61.50
2018-09-02T02:36:49.024Z,61.40
2018-09-02T02:37:20.842Z,61.50
2018-09-02T02:37:52.696Z,61.60
2018-09-02T02:38:24.593Z,61.60
2018-09-02T02:38:56.452Z,61.50
2018-09-02T02:39:28.301Z,61.30
2018-09-02T02:40:00.145Z,61.10
2018-09-02T02:40:32.065Z,61.60
2018-09-02T02:41:03.905Z,61.60
2018-09-02T02:41:35.764Z,61.40
2018-09-02T02:42:07.815Z,61.20
2018-09-02T02:42:39.817Z,61.40
2018-09-02T02:43:11.646Z,61.40
2018-09-02T02:43:43.557Z,61.60
2018-09-02T02:44:15.492Z,61.40
2018-09-02T02:44:47.315Z,61.40
2018-09-02T02:45:19.331Z,61.40
2018-09-02T02:45:51.144Z,61.50
2018-09-02T02:46:22.963Z,61.60
2018-09-02T02:46:54.828Z,61.60
2018-09-02T02:47:26.628Z,61.50
2018-09-02T02:47:58.445Z,61.60
2018-09-02T02:48:30.457Z,61.70
2018-09-02T02:49:02.343Z,61.60
2018-09-02T02:49:34.220Z,61.70
2018-09-02T02:50:06.006Z,61.60
2018-09-02T02:50:37.943Z,61.60
2018-09-02T02:51:09.866Z,61.50
2018-09-02T02:51:41.666Z,61.50
2018-09-02T02:52:13.576Z,61.90
2018-09-02T02:52:45.455Z,61.60
2018-09-02T02:53:17.253Z,62.40
2018-09-02T02:53:49.216Z,61.60
2018-09-02T02:54:21.074Z,61.70
2018-09-02T02:54:53.116Z,61.60
2018-09-02T02:55:25.055Z,61.40
2018-09-02T02:55:56.947Z,61.60
2018-09-02T02:56:28.764Z,61.60
2018-09-02T02:57:00.585Z,61.50
2018-09-02T02:57:32.425Z,61.40
2018-09-02T02:58:04.370Z,61.60
2018-09-02T02:58:36.337Z,61.60
2018-09-02T02:59:08.277Z,61.10
2018-09-02T02:59:40.078Z,61.40
2018-09-02T03:00:11.927Z,61.10
2018-09-02T03:00:43.838Z,61.40
2018-09-02T03:01:15.779Z,61.40
2018-09-02T03:01:47.675Z,61.30
2018-09-02T03:02:19.487Z,61.30
2018-09-02T03:02:51.310Z,61.30
2018-09-02T03:03:23.331Z,61.30
2018-09-02T03:03:55.123Z,61.20
2018-09-02T03:04:27.104Z,61.20
2018-09-02T03:04:58.972Z,61.40
2018-09-02T03:05:30.809Z,61.40
2018-09-02T03:06:02.686Z,61.30
2018-09-02T03:06:34.547Z,61.50
2018-09-02T03:07:06.427Z,61.40
2018-09-02T03:07:38.474Z,61.40
2018-09-02T03:08:10.257Z,61.40
2018-09-02T03:08:42.333Z,61.50
2018-09-02T03:09:14.156Z,61.40
2018-09-02T03:09:46.008Z,61.30
2018-09-02T03:10:17.888Z,61.30
2018-09-02T03:10:49.727Z,61.50
2018-09-02T03:11:21.746Z,61.40
2018-09-02T03:11:53.647Z,61.40
2018-09-02T03:12:25.577Z,61.30
2018-09-02T03:12:57.380Z,62.00
2018-09-02T03:13:29.407Z,61.30
2018-09-02T03:14:01.209Z,61.30
2018-09-02T03:14:33.011Z,61.30
2018-09-02T03:15:04.853Z,61.30
2018-09-02T03:15:36.726Z,61.30
2018-09-02T03:16:08.641Z,61.30
2018-09-02T03:16:40.498Z,61.30
2018-09-02T03:17:12.295Z,61.30
2018-09-02T03:17:44.153Z,61.40
2018-09-02T03:18:15.974Z,61.40
2018-09-02T03:18:48.051Z,61.30
2018-09-02T03:19:19.899Z,61.30
2018-09-02T03:19:51.766Z,61.30
2018-09-02T03:20:23.642Z,61.30
2018-09-02T03:20:55.668Z,61.30
2018-09-02T03:21:27.461Z,61.20
2018-09-02T03:21:59.317Z,61.20
2018-09-02T03:22:31.120Z,61.00
2018-09-02T03:23:02.935Z,61.00
2018-09-02T03:23:34.807Z,61.10
2018-09-02T03:24:06.628Z,61.10
2018-09-02T03:24:38.728Z,61.10
2018-09-02T03:25:10.569Z,61.20
2018-09-02T03:25:42.378Z,61.10
2018-09-02T03:26:14.507Z,61.30
2018-09-02T03:26:46.328Z,61.20
2018-09-02T03:27:18.140Z,61.50
2018-09-02T03:27:49.940Z,61.10
2018-09-02T03:28:21.755Z,61.10
2018-09-02T03:28:53.641Z,61.10
2018-09-02T03:29:25.678Z,61.10
2018-09-02T03:29:57.616Z,62.00
2018-09-02T03:30:29.388Z,61.10
2018-09-02T03:31:01.298Z,61.10
2018-09-02T03:31:33.361Z,61.30
2018-09-02T03:32:05.168Z,61.30
2018-09-02T03:32:37.073Z,61.30
2018-09-02T03:33:09.008Z,61.20
2018-09-02T03:33:40.788Z,61.30
2018-09-02T03:34:12.607Z,61.30
2018-09-02T03:34:44.490Z,61.30
2018-09-02T03:35:16.304Z,61.30
2018-09-02T03:35:48.269Z,61.20
2018-09-02T03:36:20.076Z,61.20
2018-09-02T03:36:51.941Z,61.20
2018-09-02T03:37:23.864Z,61.70
2018-09-02T03:37:55.709Z,61.00
2018-09-02T03:38:27.473Z,61.20
2018-09-02T03:38:59.444Z,61.10
2018-09-02T03:39:31.328Z,61.20
2018-09-02T03:40:03.204Z,61.30
2018-09-02T03:40:35.127Z,61.00
2018-09-02T03:41:07.269Z,61.30
2018-09-02T03:41:39.112Z,61.20
2018-09-02T03:42:10.960Z,61.00
2018-09-02T03:42:42.889Z,61.20
2018-09-02T03:43:14.800Z,61.20
2018-09-02T03:43:46.619Z,61.10
2018-09-02T03:44:18.466Z,61.00
2018-09-02T03:44:50.433Z,61.10
2018-09-02T03:45:22.311Z,61.10
2018-09-02T03:45:54.308Z,61.10
2018-09-02T03:46:26.264Z,61.30
2018-09-02T03:46:58.076Z,61.20
2018-09-02T03:47:29.930Z,61.10
2018-09-02T03:48:01.757Z,61.40
2018-09-02T03:48:33.595Z,61.30
2018-09-02T03:49:05.460Z,61.20
2018-09-02T03:49:37.438Z,61.30
2018-09-02T03:50:09.340Z,61.40
2018-09-02T03:50:41.163Z,61.40
2018-09-02T03:51:12.981Z,61.50
2018-09-02T03:51:44.970Z,62.00
2018-09-02T03:52:16.841Z,61.30
2018-09-02T03:52:48.682Z,61.40
2018-09-02T03:53:20.541Z,61.40
2018-09-02T03:53:52.541Z,61.30
2018-09-02T03:54:24.328Z,61.30
2018-09-02T03:54:56.518Z,61.30
2018-09-02T03:55:28.580Z,61.20
2018-09-02T03:56:00.783Z,61.20
2018-09-02T03:56:32.648Z,61.20
2018-09-02T03:57:04.460Z,62.00
2018-09-02T03:57:36.271Z,61.60
2018-09-02T03:58:08.093Z,61.10
2018-09-02T03:58:39.900Z,61.10
2018-09-02T03:59:11.754Z,61.00
2018-09-02T03:59:43.656Z,61.20
2018-09-02T04:00:15.447Z,61.10
2018-09-02T04:00:47.353Z,61.20
2018-09-02T04:01:19.141Z,61.20
2018-09-02T04:01:50.953Z,61.20
2018-09-02T04:02:22.772Z,61.00
2018-09-02T04:02:54.630Z,61.10
2018-09-02T04:03:26.449Z,61.30
2018-09-02T04:03:58.323Z,61.30
2018-09-02T04:04:30.204Z,61.20
2018-09-02T04:05:02.230Z,61.80
2018-09-02T04:05:34.045Z,61.20
2018-09-02T04:06:06.091Z,61.30
2018-09-02T04:06:37.978Z,61.30
2018-09-02T04:07:09.833Z,61.20
2018-09-02T04:07:41.789Z,61.20
2018-09-02T04:08:13.572Z,61.20
2018-09-02T04:08:45.414Z,61.10
2018-09-02T04:09:17.231Z,61.30
2018-09-02T04:09:49.115Z,61.20
2018-09-02T04:10:20.913Z,61.20
2018-09-02T04:10:52.687Z,61.20
2018-09-02T04:11:24.565Z,61.10
2018-09-02T04:11:56.681Z,61.10
2018-09-02T04:12:28.682Z,61.40
2018-09-02T04:13:00.799Z,60.60
2018-09-02T04:13:32.737Z,61.30
2018-09-02T04:14:04.550Z,61.10
2018-09-02T04:14:36.353Z,61.10
2018-09-02T04:15:08.272Z,61.20
2018-09-02T04:15:40.094Z,61.10
2018-09-02T04:16:11.918Z,60.70
2018-09-02T04:16:43.826Z,61.00
2018-09-02T04:17:15.711Z,61.10
2018-09-02T04:17:47.665Z,61.10
2018-09-02T04:18:19.607Z,61.00
2018-09-02T04:18:51.543Z,61.00
2018-09-02T04:19:23.324Z,60.90
2018-09-02T04:19:55.387Z,60.90
2018-09-02T04:20:27.477Z,60.80
2018-09-02T04:20:59.313Z,60.80
2018-09-02T04:21:31.263Z,60.90
2018-09-02T04:22:03.062Z,60.90
2018-09-02T04:22:34.875Z,61.00
2018-09-02T04:23:06.706Z,60.70
2018-09-02T04:23:38.547Z,60.90
2018-09-02T04:24:10.344Z,60.70
2018-09-02T04:24:42.396Z,60.80
2018-09-02T04:25:14.293Z,60.70
2018-09-02T04:25:46.099Z,60.80
2018-09-02T04:26:17.924Z,60.70
2018-09-02T04:26:49.779Z,60.80
2018-09-02T04:27:21.602Z,60.80
2018-09-02T04:27:53.487Z,60.90
2018-09-02T04:28:25.364Z,60.90
2018-09-02T04:28:57.149Z,60.90
2018-09-02T04:29:28.937Z,60.80
2018-09-02T04:30:00.814Z,60.80
2018-09-02T04:30:32.674Z,61.00
2018-09-02T04:31:04.482Z,61.60
2018-09-02T04:31:36.318Z,60.80
2018-09-02T04:32:08.258Z,60.90
2018-09-02T04:32:40.314Z,60.90
2018-09-02T04:33:12.102Z,60.90
2018-09-02T04:33:44.015Z,60.80
2018-09-02T04:34:15.976Z,60.90
2018-09-02T04:34:47.826Z,61.00
2018-09-02T04:35:19.643Z,61.00
2018-09-02T04:35:51.455Z,61.00
2018-09-02T04:36:23.315Z,60.80
2018-09-02T04:36:55.184Z,60.90
2018-09-02T04:37:27.183Z,61.00
2018-09-02T04:37:59.103Z,60.90
2018-09-02T04:38:31.137Z,60.90
2018-09-02T04:39:03.113Z,60.90
2018-09-02T04:39:35.040Z,61.00
2018-09-02T04:40:06.945Z,61.30
2018-09-02T04:40:39.045Z,60.90
2018-09-02T04:41:11.019Z,61.70
2018-09-02T04:41:42.943Z,60.90
2018-09-02T04:42:14.765Z,60.90
2018-09-02T04:42:46.655Z,60.90
2018-09-02T04:43:19.017Z,61.00
2018-09-02T04:43:51.044Z,60.90
2018-09-02T04:44:23.140Z,60.90
2018-09-02T04:44:55.248Z,60.90
2018-09-02T04:45:27.054Z,60.90
2018-09-02T04:45:58.841Z,60.90
2018-09-02T04:46:30.706Z,61.00
2018-09-02T04:47:02.512Z,61.00
2018-09-02T04:47:34.293Z,61.00
2018-09-02T04:48:06.121Z,60.90
2018-09-02T04:48:37.917Z,60.90
2018-09-02T04:49:09.924Z,60.90
2018-09-02T04:49:41.925Z,61.00
2018-09-02T04:50:13.793Z,61.70
2018-09-02T04:50:45.784Z,61.00
2018-09-02T04:51:17.606Z,61.10
2018-09-02T04:51:49.534Z,60.90
2018-09-02T04:52:21.587Z,60.90
2018-09-02T04:52:53.443Z,61.00
2018-09-02T04:53:25.244Z,61.10
2018-09-02T04:53:57.163Z,61.10
2018-09-02T04:54:29.085Z,61.10
2018-09-02T04:55:01.257Z,61.10
2018-09-02T04:55:33.094Z,60.80
2018-09-02T04:56:04.892Z,61.00
2018-09-02T04:56:36.724Z,60.90
2018-09-02T04:57:08.605Z,61.00
2018-09-02T04:57:40.644Z,60.90
2018-09-02T04:58:12.485Z,60.90
2018-09-02T04:58:44.392Z,60.90
2018-09-02T04:59:16.354Z,61.00
2018-09-02T04:59:48.237Z,60.90
2018-09-02T05:00:20.132Z,60.90
2018-09-02T05:00:52.306Z,61.00
2018-09-02T05:01:24.344Z,60.90
2018-09-02T05:01:56.454Z,61.00
2018-09-02T05:02:28.545Z,61.00
2018-09-02T05:03:00.376Z,61.60
2018-09-02T05:03:32.205Z,61.00
2018-09-02T05:04:03.990Z,61.00
2018-09-02T05:04:35.806Z,61.00
2018-09-02T05:05:07.605Z,61.00
2018-09-02T05:05:39.489Z,60.90
2018-09-02T05:06:11.385Z,61.00
2018-09-02T05:06:43.192Z,61.30
2018-09-02T05:07:14.992Z,60.80
2018-09-02T05:07:46.879Z,60.80
2018-09-02T05:08:18.756Z,60.90
2018-09-02T05:08:50.748Z,60.80
2018-09-02T05:09:22.605Z,60.70
2018-09-02T05:09:54.428Z,60.70
2018-09-02T05:10:26.345Z,60.80
2018-09-02T05:10:58.436Z,60.70
2018-09-02T05:11:30.253Z,61.00
2018-09-02T05:12:02.335Z,60.80
2018-09-02T05:12:34.455Z,60.80
2018-09-02T05:13:06.282Z,60.90
2018-09-02T05:13:38.145Z,60.70
2018-09-02T05:14:10.127Z,60.80
2018-09-02T05:14:42.145Z,60.90
2018-09-02T05:15:14.018Z,61.00
2018-09-02T05:15:45.858Z,61.00
2018-09-02T05:16:17.785Z,61.00
2018-09-02T05:16:49.620Z,60.90
2018-09-02T05:17:21.495Z,60.80
2018-09-02T05:17:53.436Z,60.90
2018-09-02T05:18:25.332Z,61.00
2018-09-02T05:18:57.505Z,60.90
2018-09-02T05:19:29.314Z,60.90
2018-09-02T05:20:01.166Z,60.70
2018-09-02T05:20:33.146Z,60.90
2018-09-02T05:21:04.990Z,61.00
2018-09-02T05:21:36.843Z,60.90
2018-09-02T05:22:08.656Z,61.50
2018-09-02T05:22:40.485Z,60.90
2018-09-02T05:23:12.328Z,60.80
2018-09-02T05:23:44.196Z,60.90
2018-09-02T05:24:16.027Z,61.10
2018-09-02T05:24:48.120Z,61.00
2018-09-02T05:25:20.089Z,60.90
2018-09-02T05:25:52.010Z,60.80
2018-09-02T05:26:24.088Z,60.70
2018-09-02T05:26:55.935Z,60.80
2018-09-02T05:27:27.848Z,60.70
2018-09-02T05:27:59.657Z,60.70
2018-09-02T05:28:31.505Z,60.80
2018-09-02T05:29:03.344Z,60.00
2018-09-02T05:29:35.197Z,60.90
2018-09-02T05:30:07.019Z,60.90
2018-09-02T05:30:38.857Z,61.00
2018-09-02T05:31:10.708Z,60.90
2018-09-02T05:31:42.738Z,60.80
2018-09-02T05:32:14.557Z,60.80
2018-09-02T05:32:46.556Z,60.80
2018-09-02T05:33:18.504Z,60.90
2018-09-02T05:33:50.285Z,60.80
2018-09-02T05:34:22.274Z,60.80
2018-09-02T05:34:54.115Z,60.90
2018-09-02T05:35:26.123Z,60.90
2018-09-02T05:35:57.985Z,60.90
2018-09-02T05:36:29.839Z,60.50
2018-09-02T05:37:01.692Z,60.90
2018-09-02T05:37:33.805Z,60.90
2018-09-02T05:38:05.703Z,60.90
2018-09-02T05:38:37.506Z,60.90
2018-09-02T05:39:09.416Z,61.00
2018-09-02T05:39:41.222Z,61.00
2018-09-02T05:40:13.131Z,60.90
2018-09-02T05:40:45.022Z,61.50
2018-09-02T05:41:16.876Z,60.80
2018-09-02T05:41:48.755Z,61.00
2018-09-02T05:42:20.583Z,60.90
2018-09-02T05:42:52.389Z,60.70
2018-09-02T05:43:24.286Z,60.80
2018-09-02T05:43:56.317Z,60.80
2018-09-02T05:44:28.358Z,60.90
2018-09-02T05:45:00.144Z,60.80
2018-09-02T05:45:31.938Z,60.70
2018-09-02T05:46:03.783Z,60.80
2018-09-02T05:46:35.749Z,60.70
2018-09-02T05:47:07.715Z,60.80
2018-09-02T05:47:39.492Z,60.80
2018-09-02T05:48:11.268Z,60.80
2018-09-02T05:48:43.363Z,60.80
2018-09-02T05:49:15.207Z,60.80
2018-09-02T05:49:47.067Z,60.60
2018-09-02T05:50:18.925Z,60.70
2018-09-02T05:50:50.835Z,60.80
2018-09-02T05:51:22.638Z,61.40
2018-09-02T05:51:54.554Z,60.60
2018-09-02T05:52:26.355Z,60.70
2018-09-02T05:52:58.196Z,60.70
2018-09-02T05:53:30.204Z,60.60
2018-09-02T05:54:02.192Z,60.70
2018-09-02T05:54:34.051Z,60.70
2018-09-02T05:55:06.482Z,60.70
2018-09-02T05:55:38.249Z,60.80
2018-09-02T05:56:10.092Z,60.90
2018-09-02T05:56:41.933Z,60.80
2018-09-02T05:57:13.755Z,60.60
2018-09-02T05:57:45.739Z,60.70
2018-09-02T05:58:17.760Z,60.80
2018-09-02T05:58:49.740Z,60.70
2018-09-02T05:59:21.662Z,60.80
2018-09-02T05:59:53.480Z,60.70
2018-09-02T06:00:25.678Z,60.80
2018-09-02T06:00:57.507Z,60.70
2018-09-02T06:01:29.433Z,60.70
2018-09-02T06:02:01.260Z,60.70
2018-09-02T06:02:33.254Z,60.60
2018-09-02T06:03:05.428Z,60.70
2018-09-02T06:03:37.431Z,60.00
2018-09-02T06:04:09.578Z,60.60
2018-09-02T06:04:41.446Z,60.50
2018-09-02T06:05:13.337Z,60.60
2018-09-02T06:05:45.170Z,60.60
2018-09-02T06:06:17.071Z,60.60
2018-09-02T06:06:49.021Z,60.60
2018-09-02T06:07:20.986Z,60.60
2018-09-02T06:07:52.945Z,60.60
2018-09-02T06:08:24.825Z,60.60
2018-09-02T06:08:56.846Z,60.50
2018-09-02T06:09:28.697Z,60.60
2018-09-02T06:10:00.547Z,60.60
2018-09-02T06:10:32.484Z,60.40
2018-09-02T06:11:04.604Z,60.60
2018-09-02T06:11:36.925Z,60.70
2018-09-02T06:12:08.713Z,60.60
2018-09-02T06:12:40.562Z,60.60
2018-09-02T06:13:12.520Z,60.60
2018-09-02T06:13:44.317Z,60.50
2018-09-02T06:14:16.183Z,60.50
2018-09-02T06:14:47.945Z,60.60
2018-09-02T06:15:19.862Z,60.60
2018-09-02T06:15:51.657Z,60.50
2018-09-02T06:16:23.509Z,60.60
2018-09-02T06:16:55.389Z,60.60
2018-09-02T06:17:27.356Z,60.60
2018-09-02T06:17:59.465Z,60.60
2018-09-02T06:18:31.250Z,60.80
2018-09-02T06:19:03.049Z,60.70
2018-09-02T06:19:34.863Z,60.70
2018-09-02T06:20:06.692Z,60.70
2018-09-02T06:20:38.479Z,60.60
2018-09-02T06:21:10.284Z,60.60
2018-09-02T06:21:42.097Z,60.60
2018-09-02T06:22:13.909Z,60.70
2018-09-02T06:22:45.690Z,60.70
2018-09-02T06:23:17.505Z,60.70
2018-09-02T06:23:49.346Z,60.70
2018-09-02T06:24:21.394Z,60.70
2018-09-02T06:24:53.205Z,60.70
2018-09-02T06:25:25.013Z,60.70
2018-09-02T06:25:56.907Z,60.70
2018-09-02T06:26:28.778Z,60.50
2018-09-02T06:27:00.600Z,60.70
2018-09-02T06:27:32.401Z,60.60
2018-09-02T06:28:04.197Z,60.60
2018-09-02T06:28:36.097Z,60.70
2018-09-02T06:29:07.913Z,60.70
2018-09-02T06:29:39.753Z,60.60
2018-09-02T06:30:11.613Z,60.60
2018-09-02T06:30:43.616Z,60.60
2018-09-02T06:31:15.457Z,60.50
2018-09-02T06:31:47.295Z,60.50
2018-09-02T06:32:19.204Z,60.60
2018-09-02T06:32:51.161Z,61.30
2018-09-02T06:33:23.152Z,60.50
2018-09-02T06:33:55.154Z,60.60
2018-09-02T06:34:26.975Z,60.60
2018-09-02T06:34:59.008Z,60.50
2018-09-02T06:35:30.823Z,60.60
2018-09-02T06:36:02.821Z,61.10
2018-09-02T06:36:34.674Z,60.60
2018-09-02T06:37:06.465Z,60.50
2018-09-02T06:37:38.366Z,60.60
2018-09-02T06:38:10.217Z,60.60
2018-09-02T06:38:42.109Z,60.60
2018-09-02T06:39:13.992Z,60.50
2018-09-02T06:39:45.833Z,60.60
2018-09-02T06:40:17.678Z,60.50
2018-09-02T06:40:49.572Z,60.60
2018-09-02T06:41:21.522Z,61.30
2018-09-02T06:41:53.389Z,60.60
2018-09-02T06:42:25.403Z,60.70
2018-09-02T06:42:57.471Z,60.50
2018-09-02T06:43:29.314Z,61.30
2018-09-02T06:44:01.231Z,60.60
2018-09-02T06:44:33.222Z,60.60
2018-09-02T06:45:05.051Z,61.30
2018-09-02T06:45:36.939Z,60.60
2018-09-02T06:46:08.952Z,60.60
2018-09-02T06:46:40.809Z,60.60
2018-09-02T06:47:12.676Z,60.60
2018-09-02T06:47:44.512Z,60.60
2018-09-02T06:48:16.364Z,60.60
2018-09-02T06:48:48.324Z,60.60
2018-09-02T06:49:20.134Z,60.60
2018-09-02T06:49:52.224Z,60.60
2018-09-02T06:50:24.285Z,60.50
2018-09-02T06:50:56.148Z,60.60